createdAt,value
2016-12-03T00:00:10.249Z,24.47
2016-12-03T00:00:51.013Z,24.49
2016-12-03T00:01:31.767Z,24.39
2016-12-03T00:02:12.498Z,24.42
2016-12-03T00:02:53.259Z,24.37
2016-12-03T00:03:34.015Z,24.47
2016-12-03T00:04:14.790Z,24.45
2016-12-03T00:04:55.568Z,24.4
2016-12-03T00:05:36.319Z,24.46
2016-12-03T00:06:17.073Z,24.45
2016-12-03T00:06:57.840Z,24.39
2016-12-03T00:07:38.588Z,24.45
2016-12-03T00:08:19.377Z,24.47
2016-12-03T00:09:00.124Z,24.46
2016-12-03T00:09:40.881Z,24.4
2016-12-03T00:10:21.640Z,24.39
2016-12-03T00:11:02.408Z,24.45
2016-12-03T00:11:43.164Z,24.45
2016-12-03T00:12:23.917Z,24.34
2016-12-03T00:13:04.728Z,24.4
2016-12-03T00:13:45.508Z,24.43
2016-12-03T00:14:26.246Z,24.45
2016-12-03T00:15:07.009Z,24.39
2016-12-03T00:15:47.765Z,24.37
2016-12-03T00:16:28.508Z,24.34
2016-12-03T00:17:09.282Z,24.35
2016-12-03T00:17:50.040Z,24.35
2016-12-03T00:18:30.771Z,24.39
2016-12-03T00:19:11.523Z,24.42
2016-12-03T00:19:52.299Z,24.34
2016-12-03T00:20:33.040Z,24.34
2016-12-03T00:21:13.812Z,24.4
2016-12-03T00:21:54.599Z,24.4
2016-12-03T00:22:35.360Z,24.47
2016-12-03T00:23:16.126Z,24.32
2016-12-03T00:23:56.902Z,24.32
2016-12-03T00:24:37.638Z,24.39
2016-12-03T00:25:18.385Z,24.4
2016-12-03T00:25:59.168Z,24.49
2016-12-03T00:26:39.917Z,24.42
2016-12-03T00:27:20.670Z,24.35
2016-12-03T00:28:01.462Z,24.43
2016-12-03T00:28:42.235Z,24.35
2016-12-03T00:29:22.973Z,24.35
2016-12-03T00:30:03.753Z,24.35
2016-12-03T00:30:44.505Z,24.37
2016-12-03T00:31:25.264Z,24.35
2016-12-03T00:32:06.011Z,24.34
2016-12-03T00:32:46.785Z,24.3
2016-12-03T00:33:27.578Z,24.34
2016-12-03T00:34:08.312Z,24.39
2016-12-03T00:34:49.141Z,24.34
2016-12-03T00:35:29.882Z,24.32
2016-12-03T00:36:10.633Z,24.43
2016-12-03T00:36:51.400Z,24.35
2016-12-03T00:37:32.175Z,24.31
2016-12-03T00:38:12.905Z,24.39
2016-12-03T00:38:53.668Z,24.43
2016-12-03T00:39:34.419Z,24.32
2016-12-03T00:40:15.171Z,24.43
2016-12-03T00:40:55.935Z,24.34
2016-12-03T00:41:36.681Z,24.39
2016-12-03T00:42:17.441Z,24.4
2016-12-03T00:42:58.191Z,24.35
2016-12-03T00:43:38.953Z,24.37
2016-12-03T00:44:19.701Z,24.34
2016-12-03T00:45:00.438Z,24.35
2016-12-03T00:45:41.228Z,24.37
2016-12-03T00:46:21.966Z,24.34
2016-12-03T00:47:02.729Z,24.34
2016-12-03T00:47:43.491Z,24.37
2016-12-03T00:48:24.307Z,24.32
2016-12-03T00:49:05.055Z,24.35
2016-12-03T00:49:45.827Z,24.42
2016-12-03T00:50:26.630Z,24.4
2016-12-03T00:51:07.376Z,24.35
2016-12-03T00:51:48.133Z,24.31
2016-12-03T00:52:28.895Z,24.39
2016-12-03T00:53:09.657Z,24.34
2016-12-03T00:53:50.428Z,24.39
2016-12-03T00:54:31.194Z,24.32
2016-12-03T00:55:11.953Z,24.4
2016-12-03T00:55:52.712Z,24.28
2016-12-03T00:56:33.474Z,24.35
2016-12-03T00:57:14.238Z,24.42
2016-12-03T00:57:55.039Z,24.34
2016-12-03T00:58:35.797Z,24.37
2016-12-03T00:59:16.581Z,24.4
2016-12-03T00:59:57.303Z,24.32
2016-12-03T01:00:38.073Z,24.32
2016-12-03T01:01:18.850Z,24.37
2016-12-03T01:01:59.606Z,24.31
2016-12-03T01:02:40.383Z,24.31
2016-12-03T01:03:21.151Z,24.3
2016-12-03T01:04:01.914Z,24.31
2016-12-03T01:04:42.688Z,24.34
2016-12-03T01:05:23.481Z,24.35
2016-12-03T01:06:04.253Z,24.39
2016-12-03T01:06:45.008Z,24.32
2016-12-03T01:07:25.807Z,24.31
2016-12-03T01:08:06.554Z,24.31
2016-12-03T01:08:47.325Z,24.28
2016-12-03T01:09:28.137Z,24.35
2016-12-03T01:10:08.902Z,24.42
2016-12-03T01:10:49.667Z,24.3
2016-12-03T01:11:30.443Z,24.31
2016-12-03T01:12:11.207Z,24.24
2016-12-03T01:12:51.957Z,24.32
2016-12-03T01:13:32.751Z,24.22
2016-12-03T01:14:13.502Z,24.24
2016-12-03T01:14:54.258Z,24.34
2016-12-03T01:15:35.010Z,24.31
2016-12-03T01:16:15.783Z,24.22
2016-12-03T01:16:56.542Z,24.27
2016-12-03T01:17:37.300Z,24.22
2016-12-03T01:18:18.090Z,24.21
2016-12-03T01:18:58.832Z,24.28
2016-12-03T01:19:39.589Z,24.28
2016-12-03T01:20:20.340Z,24.21
2016-12-03T01:21:01.104Z,24.25
2016-12-03T01:21:41.832Z,24.27
2016-12-03T01:22:22.614Z,24.25
2016-12-03T01:23:03.374Z,24.28
2016-12-03T01:23:44.139Z,24.34
2016-12-03T01:24:24.919Z,24.21
2016-12-03T01:25:05.668Z,24.22
2016-12-03T01:25:46.413Z,24.25
2016-12-03T01:26:27.156Z,24.24
2016-12-03T01:27:07.923Z,24.22
2016-12-03T01:27:48.670Z,24.28
2016-12-03T01:28:29.420Z,24.32
2016-12-03T01:29:10.211Z,24.2
2016-12-03T01:29:50.991Z,24.31
2016-12-03T01:30:31.734Z,24.22
2016-12-03T01:31:12.538Z,24.21
2016-12-03T01:31:53.308Z,24.22
2016-12-03T01:32:34.076Z,24.22
2016-12-03T01:33:14.843Z,24.3
2016-12-03T01:33:55.627Z,24.24
2016-12-03T01:34:36.345Z,24.2
2016-12-03T01:35:17.121Z,24.32
2016-12-03T01:35:57.879Z,24.24
2016-12-03T01:36:38.637Z,24.21
2016-12-03T01:37:19.397Z,24.28
2016-12-03T01:38:00.173Z,24.22
2016-12-03T01:38:40.922Z,24.31
2016-12-03T01:39:21.666Z,24.27
2016-12-03T01:40:02.485Z,24.27
2016-12-03T01:40:43.231Z,24.27
2016-12-03T01:41:23.994Z,24.21
2016-12-03T01:42:04.771Z,24.21
2016-12-03T01:42:45.540Z,24.22
2016-12-03T01:43:26.301Z,24.18
2016-12-03T01:44:07.064Z,24.2
2016-12-03T01:44:47.841Z,24.2
2016-12-03T01:45:28.579Z,24.22
2016-12-03T01:46:09.379Z,24.2
2016-12-03T01:46:50.144Z,24.28
2016-12-03T01:47:30.894Z,24.22
2016-12-03T01:48:11.665Z,24.32
2016-12-03T01:48:52.427Z,24.31
2016-12-03T01:49:33.169Z,24.3
2016-12-03T01:50:13.949Z,24.3
2016-12-03T01:50:54.758Z,24.32
2016-12-03T01:51:35.513Z,24.18
2016-12-03T01:52:16.259Z,24.22
2016-12-03T01:52:57.063Z,24.22
2016-12-03T01:53:37.837Z,24.31
2016-12-03T01:54:18.563Z,24.22
2016-12-03T01:54:59.352Z,24.16
2016-12-03T01:55:40.127Z,24.21
2016-12-03T01:56:20.880Z,24.22
2016-12-03T01:57:01.652Z,24.2
2016-12-03T01:57:42.411Z,24.21
2016-12-03T01:58:23.171Z,24.27
2016-12-03T01:59:03.924Z,24.22
2016-12-03T01:59:44.727Z,24.22
2016-12-03T02:00:25.471Z,24.21
2016-12-03T02:01:06.227Z,24.21
2016-12-03T02:01:47.061Z,24.24
2016-12-03T02:02:27.811Z,24.24
2016-12-03T02:03:08.570Z,24.24
2016-12-03T02:03:49.359Z,24.3
2016-12-03T02:04:30.144Z,24.18
2016-12-03T02:05:10.900Z,24.22
2016-12-03T02:05:51.650Z,24.18
2016-12-03T02:06:32.427Z,24.22
2016-12-03T02:07:13.174Z,24.22
2016-12-03T02:07:53.949Z,24.2
2016-12-03T02:08:34.715Z,24.22
2016-12-03T02:09:15.500Z,24.21
2016-12-03T02:09:56.280Z,24.22
2016-12-03T02:10:37.054Z,24.21
2016-12-03T02:11:17.790Z,24.28
2016-12-03T02:11:58.590Z,24.31
2016-12-03T02:12:39.386Z,24.24
2016-12-03T02:13:20.141Z,24.24
2016-12-03T02:14:00.907Z,24.18
2016-12-03T02:14:41.689Z,24.2
2016-12-03T02:15:22.453Z,24.22
2016-12-03T02:16:03.200Z,24.18
2016-12-03T02:16:43.955Z,24.21
2016-12-03T02:17:24.743Z,24.21
2016-12-03T02:18:05.475Z,24.15
2016-12-03T02:18:46.237Z,24.21
2016-12-03T02:19:26.991Z,24.16
2016-12-03T02:20:07.743Z,24.13
2016-12-03T02:20:48.520Z,24.15
2016-12-03T02:21:29.275Z,24.21
2016-12-03T02:22:10.031Z,24.18
2016-12-03T02:22:50.792Z,24.21
2016-12-03T02:23:31.538Z,24.15
2016-12-03T02:24:12.319Z,24.21
2016-12-03T02:24:53.071Z,24.31
2016-12-03T02:25:33.825Z,24.2
2016-12-03T02:26:14.621Z,24.24
2016-12-03T02:26:55.377Z,24.22
2016-12-03T02:27:36.137Z,24.2
2016-12-03T02:28:16.891Z,24.09
2016-12-03T02:28:57.651Z,24.16
2016-12-03T02:29:38.397Z,24.15
2016-12-03T02:30:19.160Z,24.16
2016-12-03T02:30:59.928Z,24.15
2016-12-03T02:31:40.686Z,24.18
2016-12-03T02:32:21.440Z,24.2
2016-12-03T02:33:02.211Z,24.16
2016-12-03T02:33:42.972Z,24.15
2016-12-03T02:34:23.749Z,24.15
2016-12-03T02:35:04.501Z,24.24
2016-12-03T02:35:45.258Z,24.21
2016-12-03T02:36:26.045Z,24.18
2016-12-03T02:37:06.838Z,24.18
2016-12-03T02:37:47.607Z,24.08
2016-12-03T02:38:28.354Z,24.08
2016-12-03T02:39:09.112Z,24.05
2016-12-03T02:39:49.903Z,24.15
2016-12-03T02:40:30.649Z,24.12
2016-12-03T02:41:11.398Z,24.06
2016-12-03T02:41:52.175Z,24.16
2016-12-03T02:42:32.960Z,24.15
2016-12-03T02:43:13.679Z,24.2
2016-12-03T02:43:54.451Z,24.09
2016-12-03T02:44:35.205Z,24.12
2016-12-03T02:45:15.928Z,24.08
2016-12-03T02:45:56.699Z,24.2
2016-12-03T02:46:37.476Z,24.09
2016-12-03T02:47:18.223Z,24.15
2016-12-03T02:47:58.978Z,24.15
2016-12-03T02:48:39.780Z,24.13
2016-12-03T02:49:20.540Z,24.1
2016-12-03T02:50:01.280Z,24.09
2016-12-03T02:50:42.051Z,24.09
2016-12-03T02:51:22.837Z,24.1
2016-12-03T02:52:03.621Z,24.08
2016-12-03T02:52:44.421Z,24.1
2016-12-03T02:53:25.188Z,24.2
2016-12-03T02:54:05.978Z,24.2
2016-12-03T02:54:46.736Z,24.1
2016-12-03T02:55:27.496Z,24.13
2016-12-03T02:56:08.230Z,24.1
2016-12-03T02:56:49.021Z,24.1
2016-12-03T02:57:29.768Z,24.08
2016-12-03T02:58:10.533Z,24.12
2016-12-03T02:58:51.297Z,24.16
2016-12-03T02:59:32.074Z,24.15
2016-12-03T03:00:12.816Z,24.03
2016-12-03T03:00:53.566Z,24.15
2016-12-03T03:01:34.343Z,24.15
2016-12-03T03:02:15.084Z,24.21
2016-12-03T03:02:55.866Z,24.12
2016-12-03T03:03:36.630Z,24.2
2016-12-03T03:04:17.404Z,24.15
2016-12-03T03:04:58.129Z,24.15
2016-12-03T03:05:38.909Z,24.15
2016-12-03T03:06:19.716Z,24.15
2016-12-03T03:07:00.452Z,24.13
2016-12-03T03:07:41.228Z,24.16
2016-12-03T03:08:21.981Z,24.18
2016-12-03T03:09:02.731Z,24.15
2016-12-03T03:09:43.504Z,24.15
2016-12-03T03:10:24.250Z,24.08
2016-12-03T03:11:04.996Z,24.08
2016-12-03T03:11:45.766Z,24.08
2016-12-03T03:12:26.563Z,24.09
2016-12-03T03:13:07.335Z,24.12
2016-12-03T03:13:48.126Z,24.12
2016-12-03T03:14:28.868Z,24.09
2016-12-03T03:15:09.658Z,24.08
2016-12-03T03:15:50.441Z,24.1
2016-12-03T03:16:31.201Z,24.12
2016-12-03T03:17:11.956Z,24.08
2016-12-03T03:17:52.693Z,24.09
2016-12-03T03:18:33.461Z,24.12
2016-12-03T03:19:14.257Z,24.09
2016-12-03T03:19:55.020Z,24.03
2016-12-03T03:20:35.750Z,24.06
2016-12-03T03:21:16.523Z,24.03
2016-12-03T03:21:57.283Z,24.03
2016-12-03T03:22:38.024Z,24.03
2016-12-03T03:23:18.795Z,24.05
2016-12-03T03:23:59.532Z,24
2016-12-03T03:24:40.298Z,23.97
2016-12-03T03:25:21.054Z,24
2016-12-03T03:26:01.806Z,24.02
2016-12-03T03:26:42.549Z,23.98
2016-12-03T03:27:23.326Z,24.06
2016-12-03T03:28:04.087Z,24.08
2016-12-03T03:28:44.827Z,24.03
2016-12-03T03:29:25.595Z,24.06
2016-12-03T03:30:06.336Z,24.02
2016-12-03T03:30:47.080Z,24.08
2016-12-03T03:31:27.851Z,24.05
2016-12-03T03:32:08.672Z,24.08
2016-12-03T03:32:49.460Z,24.02
2016-12-03T03:33:30.202Z,24.02
2016-12-03T03:34:11.029Z,24.05
2016-12-03T03:34:51.772Z,23.93
2016-12-03T03:35:32.533Z,23.94
2016-12-03T03:36:13.315Z,24.05
2016-12-03T03:36:54.103Z,24.02
2016-12-03T03:37:34.867Z,24.08
2016-12-03T03:38:15.664Z,23.94
2016-12-03T03:38:56.422Z,24.08
2016-12-03T03:39:37.165Z,24.05
2016-12-03T03:40:17.961Z,24.09
2016-12-03T03:40:58.714Z,24.06
2016-12-03T03:41:39.490Z,23.95
2016-12-03T03:42:20.237Z,24.02
2016-12-03T03:43:01.004Z,23.94
2016-12-03T03:43:41.768Z,23.97
2016-12-03T03:44:22.516Z,24.03
2016-12-03T03:45:03.311Z,23.98
2016-12-03T03:45:44.049Z,24.05
2016-12-03T03:46:24.831Z,24.02
2016-12-03T03:47:05.595Z,24.03
2016-12-03T03:47:46.366Z,24.06
2016-12-03T03:48:27.112Z,23.97
2016-12-03T03:49:07.880Z,23.95
2016-12-03T03:49:48.682Z,23.95
2016-12-03T03:50:29.415Z,24.03
2016-12-03T03:51:10.185Z,23.94
2016-12-03T03:51:50.953Z,23.94
2016-12-03T03:52:31.724Z,23.95
2016-12-03T03:53:12.485Z,23.95
2016-12-03T03:53:53.254Z,23.93
2016-12-03T03:54:34.017Z,23.91
2016-12-03T03:55:14.759Z,23.94
2016-12-03T03:55:55.564Z,23.94
2016-12-03T03:56:36.306Z,23.97
2016-12-03T03:57:17.045Z,23.94
2016-12-03T03:57:57.800Z,23.93
2016-12-03T03:58:38.581Z,24.02
2016-12-03T03:59:19.332Z,23.97
2016-12-03T04:00:00.089Z,23.94
2016-12-03T04:00:40.850Z,24
2016-12-03T04:01:21.586Z,23.94
2016-12-03T04:02:02.352Z,23.97
2016-12-03T04:02:43.118Z,23.93
2016-12-03T04:03:23.857Z,23.91
2016-12-03T04:04:04.591Z,23.91
2016-12-03T04:04:45.376Z,24.02
2016-12-03T04:05:26.136Z,23.98
2016-12-03T04:06:06.953Z,23.93
2016-12-03T04:06:47.725Z,24
2016-12-03T04:07:28.494Z,23.97
2016-12-03T04:08:09.269Z,23.97
2016-12-03T04:08:50.049Z,23.93
2016-12-03T04:09:30.802Z,23.93
2016-12-03T04:10:11.548Z,23.93
2016-12-03T04:10:52.330Z,24.02
2016-12-03T04:11:33.109Z,23.97
2016-12-03T04:12:13.874Z,23.93
2016-12-03T04:12:54.657Z,23.93
2016-12-03T04:13:35.419Z,24.02
2016-12-03T04:14:16.207Z,23.94
2016-12-03T04:14:56.963Z,23.94
2016-12-03T04:15:37.727Z,23.94
2016-12-03T04:16:18.492Z,23.88
2016-12-03T04:16:59.255Z,23.95
2016-12-03T04:17:40.027Z,24.02
2016-12-03T04:18:20.774Z,24
2016-12-03T04:19:01.539Z,23.94
2016-12-03T04:19:42.319Z,23.98
2016-12-03T04:20:23.093Z,23.93
2016-12-03T04:21:03.832Z,23.85
2016-12-03T04:21:44.593Z,23.91
2016-12-03T04:22:25.358Z,23.95
2016-12-03T04:23:06.093Z,23.88
2016-12-03T04:23:46.846Z,23.91
2016-12-03T04:24:27.620Z,23.93
2016-12-03T04:25:08.359Z,23.88
2016-12-03T04:25:49.129Z,23.91
2016-12-03T04:26:29.905Z,23.97
2016-12-03T04:27:10.694Z,23.87
2016-12-03T04:27:51.454Z,23.9
2016-12-03T04:28:32.231Z,23.91
2016-12-03T04:29:12.983Z,23.94
2016-12-03T04:29:53.738Z,23.9
2016-12-03T04:30:34.508Z,23.85
2016-12-03T04:31:15.276Z,23.94
2016-12-03T04:31:56.001Z,23.93
2016-12-03T04:32:36.768Z,23.87
2016-12-03T04:33:17.522Z,23.88
2016-12-03T04:33:58.262Z,23.88
2016-12-03T04:34:39.010Z,23.97
2016-12-03T04:35:19.770Z,23.88
2016-12-03T04:36:00.531Z,23.91
2016-12-03T04:36:41.274Z,23.91
2016-12-03T04:37:22.075Z,23.9
2016-12-03T04:38:02.816Z,23.91
2016-12-03T04:38:43.586Z,23.91
2016-12-03T04:39:24.366Z,23.93
2016-12-03T04:40:05.105Z,23.88
2016-12-03T04:40:45.873Z,23.9
2016-12-03T04:41:26.614Z,23.91
2016-12-03T04:42:07.389Z,23.91
2016-12-03T04:42:48.171Z,23.91
2016-12-03T04:43:28.936Z,23.88
2016-12-03T04:44:09.688Z,23.94
2016-12-03T04:44:50.487Z,23.94
2016-12-03T04:45:31.215Z,23.91
2016-12-03T04:46:11.993Z,23.97
2016-12-03T04:46:52.740Z,23.93
2016-12-03T04:47:33.480Z,23.87
2016-12-03T04:48:14.221Z,23.87
2016-12-03T04:48:54.979Z,23.9
2016-12-03T04:49:35.770Z,23.97
2016-12-03T04:50:16.501Z,23.97
2016-12-03T04:50:57.289Z,23.84
2016-12-03T04:51:38.050Z,23.9
2016-12-03T04:52:18.804Z,23.95
2016-12-03T04:52:59.580Z,23.84
2016-12-03T04:53:40.346Z,23.87
2016-12-03T04:54:21.094Z,23.83
2016-12-03T04:55:01.874Z,23.95
2016-12-03T04:55:42.662Z,23.98
2016-12-03T04:56:23.423Z,23.84
2016-12-03T04:57:04.184Z,23.9
2016-12-03T04:57:44.961Z,24.02
2016-12-03T04:58:25.714Z,23.93
2016-12-03T04:59:06.485Z,23.9
2016-12-03T04:59:47.265Z,23.85
2016-12-03T05:00:28.015Z,23.94
2016-12-03T05:01:08.758Z,23.97
2016-12-03T05:01:49.529Z,23.8
2016-12-03T05:02:30.298Z,23.9
2016-12-03T05:03:11.038Z,23.94
2016-12-03T05:03:51.812Z,23.95
2016-12-03T05:04:32.569Z,23.79
2016-12-03T05:05:13.335Z,23.88
2016-12-03T05:05:54.083Z,23.91
2016-12-03T05:06:34.877Z,23.91
2016-12-03T05:07:15.625Z,23.83
2016-12-03T05:07:56.373Z,23.91
2016-12-03T05:08:37.164Z,23.88
2016-12-03T05:09:17.915Z,23.9
2016-12-03T05:09:58.666Z,23.83
2016-12-03T05:10:39.417Z,23.84
2016-12-03T05:11:20.188Z,23.76
2016-12-03T05:12:00.924Z,23.79
2016-12-03T05:12:41.695Z,23.8
2016-12-03T05:13:22.493Z,23.85
2016-12-03T05:14:03.234Z,23.93
2016-12-03T05:14:43.997Z,23.83
2016-12-03T05:15:24.759Z,23.78
2016-12-03T05:16:05.528Z,23.79
2016-12-03T05:16:46.316Z,23.84
2016-12-03T05:17:27.083Z,23.78
2016-12-03T05:18:07.842Z,23.9
2016-12-03T05:18:48.591Z,23.9
2016-12-03T05:19:29.371Z,23.79
2016-12-03T05:20:10.128Z,23.9
2016-12-03T05:20:50.896Z,23.76
2016-12-03T05:21:31.650Z,23.9
2016-12-03T05:22:12.419Z,23.87
2016-12-03T05:22:53.154Z,23.8
2016-12-03T05:23:34.550Z,23.84
2016-12-03T05:24:14.670Z,23.85
2016-12-03T05:24:55.426Z,23.9
2016-12-03T05:25:36.208Z,23.88
2016-12-03T05:26:16.988Z,23.83
2016-12-03T05:26:57.750Z,23.78
2016-12-03T05:27:38.542Z,23.8
2016-12-03T05:28:19.300Z,23.85
2016-12-03T05:29:00.041Z,23.78
2016-12-03T05:29:40.795Z,23.9
2016-12-03T05:30:21.585Z,23.83
2016-12-03T05:31:02.348Z,23.78
2016-12-03T05:31:43.121Z,23.79
2016-12-03T05:32:23.875Z,23.76
2016-12-03T05:33:04.652Z,23.79
2016-12-03T05:33:45.423Z,23.78
2016-12-03T05:34:26.194Z,23.78
2016-12-03T05:35:06.969Z,23.83
2016-12-03T05:35:47.683Z,23.76
2016-12-03T05:36:28.464Z,23.75
2016-12-03T05:37:09.225Z,23.78
2016-12-03T05:37:49.969Z,23.79
2016-12-03T05:38:30.708Z,23.83
2016-12-03T05:39:11.500Z,23.79
2016-12-03T05:39:52.288Z,23.76
2016-12-03T05:40:33.060Z,23.76
2016-12-03T05:41:13.833Z,23.83
2016-12-03T05:41:54.581Z,23.78
2016-12-03T05:42:35.334Z,23.76
2016-12-03T05:43:16.086Z,23.8
2016-12-03T05:43:56.866Z,23.78
2016-12-03T05:44:37.619Z,23.73
2016-12-03T05:45:18.396Z,23.78
2016-12-03T05:45:59.157Z,23.79
2016-12-03T05:46:39.912Z,23.84
2016-12-03T05:47:20.689Z,23.76
2016-12-03T05:48:01.457Z,23.79
2016-12-03T05:48:42.220Z,23.78
2016-12-03T05:49:22.973Z,23.78
2016-12-03T05:50:03.754Z,23.78
2016-12-03T05:50:44.501Z,23.79
2016-12-03T05:51:25.259Z,23.78
2016-12-03T05:52:06.046Z,23.8
2016-12-03T05:52:46.823Z,23.79
2016-12-03T05:53:27.583Z,23.79
2016-12-03T05:54:08.347Z,23.79
2016-12-03T05:54:49.093Z,23.79
2016-12-03T05:55:29.840Z,23.8
2016-12-03T05:56:10.610Z,23.83
2016-12-03T05:56:51.394Z,23.79
2016-12-03T05:57:32.182Z,23.72
2016-12-03T05:58:12.946Z,23.72
2016-12-03T05:58:53.723Z,23.8
2016-12-03T05:59:34.471Z,23.79
2016-12-03T06:00:15.230Z,23.8
2016-12-03T06:00:56.025Z,23.78
2016-12-03T06:01:36.797Z,23.75
2016-12-03T06:02:17.545Z,23.8
2016-12-03T06:02:58.326Z,23.83
2016-12-03T06:03:39.068Z,23.79
2016-12-03T06:04:19.825Z,23.78
2016-12-03T06:05:00.578Z,23.76
2016-12-03T06:05:41.332Z,23.8
2016-12-03T06:06:22.087Z,23.79
2016-12-03T06:07:02.848Z,23.79
2016-12-03T06:07:43.607Z,23.79
2016-12-03T06:08:24.352Z,23.84
2016-12-03T06:09:05.198Z,23.75
2016-12-03T06:09:45.954Z,23.85
2016-12-03T06:10:26.703Z,23.79
2016-12-03T06:11:07.470Z,23.78
2016-12-03T06:11:48.244Z,23.83
2016-12-03T06:12:29.003Z,23.78
2016-12-03T06:13:09.767Z,23.72
2016-12-03T06:13:50.551Z,23.7
2016-12-03T06:14:31.280Z,23.68
2016-12-03T06:15:12.028Z,23.78
2016-12-03T06:15:52.799Z,23.78
2016-12-03T06:16:33.565Z,23.79
2016-12-03T06:17:14.307Z,23.78
2016-12-03T06:17:55.077Z,23.72
2016-12-03T06:18:35.844Z,23.78
2016-12-03T06:19:16.581Z,23.8
2016-12-03T06:19:57.362Z,23.72
2016-12-03T06:20:38.118Z,23.72
2016-12-03T06:21:18.876Z,23.72
2016-12-03T06:21:59.619Z,23.72
2016-12-03T06:22:40.398Z,23.72
2016-12-03T06:23:21.140Z,23.72
2016-12-03T06:24:01.901Z,23.63
2016-12-03T06:24:42.669Z,23.7
2016-12-03T06:25:23.410Z,23.75
2016-12-03T06:26:04.176Z,23.72
2016-12-03T06:26:44.925Z,23.72
2016-12-03T06:27:25.735Z,23.72
2016-12-03T06:28:06.479Z,23.7
2016-12-03T06:28:47.237Z,23.68
2016-12-03T06:29:28.003Z,23.7
2016-12-03T06:30:08.741Z,23.7
2016-12-03T06:30:49.499Z,23.75
2016-12-03T06:31:30.269Z,23.63
2016-12-03T06:32:11.035Z,23.75
2016-12-03T06:32:51.800Z,23.72
2016-12-03T06:33:32.574Z,23.72
2016-12-03T06:34:13.331Z,23.69
2016-12-03T06:34:54.073Z,23.75
2016-12-03T06:35:34.853Z,23.69
2016-12-03T06:36:15.600Z,23.68
2016-12-03T06:36:56.352Z,23.73
2016-12-03T06:37:37.135Z,23.73
2016-12-03T06:38:17.914Z,23.7
2016-12-03T06:38:58.664Z,23.75
2016-12-03T06:39:39.403Z,23.72
2016-12-03T06:40:20.182Z,23.73
2016-12-03T06:41:00.911Z,23.73
2016-12-03T06:41:41.667Z,23.68
2016-12-03T06:42:22.455Z,23.72
2016-12-03T06:43:03.199Z,23.66
2016-12-03T06:43:43.948Z,23.63
2016-12-03T06:44:24.727Z,23.73
2016-12-03T06:45:05.484Z,23.7
2016-12-03T06:45:46.221Z,23.66
2016-12-03T06:46:26.986Z,23.7
2016-12-03T06:47:07.776Z,23.63
2016-12-03T06:47:48.549Z,23.69
2016-12-03T06:48:29.310Z,23.68
2016-12-03T06:49:10.096Z,23.66
2016-12-03T06:49:50.852Z,23.68
2016-12-03T06:50:31.601Z,23.69
2016-12-03T06:51:12.348Z,23.66
2016-12-03T06:51:53.099Z,23.61
2016-12-03T06:52:33.884Z,23.72
2016-12-03T06:53:14.651Z,23.69
2016-12-03T06:53:55.443Z,23.69
2016-12-03T06:54:36.181Z,23.69
2016-12-03T06:55:16.956Z,23.69
2016-12-03T06:55:57.709Z,23.68
2016-12-03T06:56:38.448Z,23.65
2016-12-03T06:57:19.218Z,23.65
2016-12-03T06:57:59.962Z,23.66
2016-12-03T06:58:40.705Z,23.68
2016-12-03T06:59:21.492Z,23.69
2016-12-03T07:00:02.228Z,23.68
2016-12-03T07:00:42.996Z,23.65
2016-12-03T07:01:23.740Z,23.66
2016-12-03T07:02:04.483Z,23.65
2016-12-03T07:02:45.275Z,23.65
2016-12-03T07:03:26.036Z,23.65
2016-12-03T07:04:06.812Z,23.68
2016-12-03T07:04:47.569Z,23.65
2016-12-03T07:05:28.339Z,23.66
2016-12-03T07:06:09.089Z,23.66
2016-12-03T07:06:49.866Z,23.68
2016-12-03T07:07:30.636Z,23.7
2016-12-03T07:08:11.358Z,23.69
2016-12-03T07:08:52.146Z,23.69
2016-12-03T07:09:32.921Z,23.69
2016-12-03T07:10:13.668Z,23.66
2016-12-03T07:10:54.440Z,23.69
2016-12-03T07:11:35.203Z,23.66
2016-12-03T07:12:15.967Z,23.66
2016-12-03T07:12:56.723Z,23.65
2016-12-03T07:13:37.512Z,23.63
2016-12-03T07:14:18.255Z,23.66
2016-12-03T07:14:59.004Z,23.68
2016-12-03T07:15:39.769Z,23.68
2016-12-03T07:16:20.535Z,23.68
2016-12-03T07:17:01.259Z,23.7
2016-12-03T07:17:42.013Z,23.72
2016-12-03T07:18:22.784Z,23.68
2016-12-03T07:19:03.526Z,23.63
2016-12-03T07:19:44.307Z,23.61
2016-12-03T07:20:25.072Z,23.66
2016-12-03T07:21:05.829Z,23.75
2016-12-03T07:21:46.594Z,23.69
2016-12-03T07:22:27.373Z,23.68
2016-12-03T07:23:08.122Z,23.73
2016-12-03T07:23:48.861Z,23.65
2016-12-03T07:24:29.634Z,23.7
2016-12-03T07:25:10.383Z,23.69
2016-12-03T07:25:51.124Z,23.66
2016-12-03T07:26:31.879Z,23.68
2016-12-03T07:27:12.637Z,23.65
2016-12-03T07:27:53.363Z,23.65
2016-12-03T07:28:34.131Z,23.63
2016-12-03T07:29:14.905Z,23.69
2016-12-03T07:29:55.623Z,23.65
2016-12-03T07:30:36.389Z,23.73
2016-12-03T07:31:17.143Z,23.66
2016-12-03T07:31:57.898Z,23.61
2016-12-03T07:32:38.671Z,23.66
2016-12-03T07:33:19.457Z,23.7
2016-12-03T07:34:00.206Z,23.69
2016-12-03T07:34:40.979Z,23.73
2016-12-03T07:35:21.756Z,23.72
2016-12-03T07:36:02.517Z,23.72
2016-12-03T07:36:43.265Z,23.69
2016-12-03T07:37:24.052Z,23.68
2016-12-03T07:38:04.832Z,23.69
2016-12-03T07:38:45.572Z,23.69
2016-12-03T07:39:26.322Z,23.6
2016-12-03T07:40:07.123Z,23.69
2016-12-03T07:40:47.913Z,23.73
2016-12-03T07:41:28.689Z,23.7
2016-12-03T07:42:09.465Z,23.68
2016-12-03T07:42:50.208Z,23.69
2016-12-03T07:43:30.952Z,23.65
2016-12-03T07:44:11.723Z,23.61
2016-12-03T07:44:52.473Z,23.69
2016-12-03T07:45:33.234Z,23.61
2016-12-03T07:46:14.016Z,23.63
2016-12-03T07:46:54.770Z,23.68
2016-12-03T07:47:35.567Z,23.69
2016-12-03T07:48:16.311Z,23.57
2016-12-03T07:48:57.082Z,23.68
2016-12-03T07:49:37.833Z,23.69
2016-12-03T07:50:18.602Z,23.69
2016-12-03T07:50:59.377Z,23.68
2016-12-03T07:51:40.147Z,23.65
2016-12-03T07:52:21.827Z,23.69
2016-12-03T07:53:02.585Z,23.65
2016-12-03T07:53:43.345Z,23.66
2016-12-03T07:54:24.893Z,23.66
2016-12-03T07:55:05.675Z,23.63
2016-12-03T07:55:46.439Z,23.7
2016-12-03T07:56:27.180Z,23.61
2016-12-03T07:57:07.961Z,23.68
2016-12-03T07:57:48.698Z,23.7
2016-12-03T07:58:29.475Z,23.63
2016-12-03T07:59:10.218Z,23.68
2016-12-03T07:59:50.986Z,23.69
2016-12-03T08:00:31.733Z,23.7
2016-12-03T08:01:12.512Z,23.68
2016-12-03T08:01:53.273Z,23.58
2016-12-03T08:02:34.020Z,23.61
2016-12-03T08:03:14.812Z,23.63
2016-12-03T08:03:55.554Z,23.65
2016-12-03T08:04:37.191Z,23.68
2016-12-03T08:05:17.947Z,23.66
2016-12-03T08:05:58.735Z,23.7
2016-12-03T08:06:40.145Z,23.72
2016-12-03T08:07:20.244Z,23.69
2016-12-03T08:08:01.040Z,23.68
2016-12-03T08:08:41.793Z,23.68
2016-12-03T08:09:22.550Z,23.66
2016-12-03T08:10:03.309Z,23.66
2016-12-03T08:10:44.082Z,23.68
2016-12-03T08:11:24.839Z,23.69
2016-12-03T08:12:05.610Z,23.63
2016-12-03T08:12:46.369Z,23.68
2016-12-03T08:13:27.106Z,23.66
2016-12-03T08:14:07.871Z,23.69
2016-12-03T08:14:48.664Z,23.68
2016-12-03T08:15:29.420Z,23.69
2016-12-03T08:16:10.182Z,23.68
2016-12-03T08:16:50.986Z,23.63
2016-12-03T08:17:31.738Z,23.6
2016-12-03T08:18:12.512Z,23.66
2016-12-03T08:18:53.301Z,23.65
2016-12-03T08:19:34.045Z,23.7
2016-12-03T08:20:14.786Z,23.61
2016-12-03T08:20:55.546Z,23.68
2016-12-03T08:21:36.881Z,23.69
2016-12-03T08:22:17.637Z,23.66
2016-12-03T08:22:58.392Z,23.66
2016-12-03T08:23:39.148Z,23.7
2016-12-03T08:24:19.880Z,23.7
2016-12-03T08:25:00.653Z,23.68
2016-12-03T08:25:41.452Z,23.66
2016-12-03T08:26:22.204Z,23.63
2016-12-03T08:27:02.971Z,23.68
2016-12-03T08:27:43.754Z,23.65
2016-12-03T08:28:24.524Z,23.7
2016-12-03T08:29:05.304Z,23.69
2016-12-03T08:29:46.078Z,23.63
2016-12-03T08:30:26.815Z,23.68
2016-12-03T08:31:07.598Z,23.65
2016-12-03T08:31:48.376Z,23.73
2016-12-03T08:32:29.136Z,23.72
2016-12-03T08:33:09.878Z,23.68
2016-12-03T08:33:50.688Z,23.76
2016-12-03T08:34:31.436Z,23.79
2016-12-03T08:35:12.195Z,23.72
2016-12-03T08:35:53.790Z,23.65
2016-12-03T08:36:34.530Z,23.69
2016-12-03T08:37:15.320Z,23.65
2016-12-03T08:37:56.063Z,23.69
2016-12-03T08:38:36.847Z,23.68
2016-12-03T08:39:17.581Z,23.7
2016-12-03T08:39:58.330Z,23.75
2016-12-03T08:40:39.098Z,23.65
2016-12-03T08:41:19.845Z,23.65
2016-12-03T08:42:00.644Z,23.66
2016-12-03T08:42:41.440Z,23.7
2016-12-03T08:43:22.191Z,23.76
2016-12-03T08:44:02.925Z,23.78
2016-12-03T08:44:43.712Z,23.76
2016-12-03T08:45:24.499Z,23.79
2016-12-03T08:46:05.246Z,23.79
2016-12-03T08:46:46.006Z,23.76
2016-12-03T08:47:26.756Z,23.83